createdAt,value
2022-10-24T00:00:25.808Z,3.60
2022-10-24T00:02:52.557Z,3.60
2022-10-24T00:05:19.435Z,3.47
2022-10-24T00:07:46.372Z,3.58
2022-10-24T00:10:13.880Z,3.75
2022-10-24T00:12:40.785Z,3.70
2022-10-24T00:15:08.343Z,3.90
2022-10-24T00:17:35.189Z,4.35
2022-10-24T00:20:02.367Z,3.53
2022-10-24T00:22:29.111Z,3.10
2022-10-24T00:24:55.812Z,3.22
2022-10-24T00:27:22.482Z,2.92
2022-10-24T00:29:49.276Z,3.03
2022-10-24T00:32:16.092Z,3.60
2022-10-24T00:34:42.837Z,3.10
2022-10-24T00:37:09.690Z,3.50
2022-10-24T00:39:36.841Z,3.28
2022-10-24T00:42:04.138Z,2.92
2022-10-24T00:44:38.443Z,3.00
2022-10-24T00:47:10.308Z,3.53
2022-10-24T00:49:50.797Z,3.38
2022-10-24T00:52:22.232Z,2.92
2022-10-24T00:57:25.172Z,1.70
2022-10-24T00:59:56.835Z,2.65
2022-10-24T01:02:24.094Z,2.28
2022-10-24T01:04:50.769Z,1.60
2022-10-24T01:07:31.313Z,2.53
2022-10-24T01:13:43.633Z,2.70
2022-10-24T01:16:17.760Z,2.90
2022-10-24T01:19:28.021Z,3.05
2022-10-24T01:22:11.013Z,3.05
2022-10-24T01:24:52.361Z,4.20
2022-10-24T01:27:53.141Z,3.28
2022-10-24T01:30:20.233Z,3.70
2022-10-24T01:33:00.652Z,3.80
2022-10-24T01:35:40.982Z,3.92
2022-10-24T01:38:15.630Z,4.28
2022-10-24T01:41:05.193Z,4.30
2022-10-24T01:43:36.072Z,4.45
2022-10-24T01:46:08.161Z,4.55
2022-10-24T01:48:40.303Z,4.88
2022-10-24T01:51:08.099Z,4.20
2022-10-24T01:53:36.771Z,4.70
2022-10-24T01:56:04.419Z,4.90
2022-10-24T01:58:31.065Z,4.72
2022-10-24T02:01:01.560Z,4.13
2022-10-24T02:03:37.024Z,5.00
2022-10-24T02:06:19.412Z,4.28
2022-10-24T02:08:56.383Z,4.80
2022-10-24T02:11:23.250Z,5.00
2022-10-24T02:13:58.339Z,5.40
2022-10-24T02:16:25.539Z,5.00
2022-10-24T02:18:56.076Z,6.47
2022-10-24T02:21:37.502Z,4.95
2022-10-24T02:24:24.552Z,5.10
2022-10-24T02:26:57.969Z,5.22
2022-10-24T02:29:41.811Z,5.90
2022-10-24T02:32:14.857Z,5.75
2022-10-24T02:34:42.972Z,5.43
2022-10-24T02:37:11.695Z,6.15
2022-10-24T02:39:40.726Z,6.18
2022-10-24T02:42:08.892Z,5.80
2022-10-24T02:44:36.763Z,5.63
2022-10-24T02:47:06.019Z,6.00
2022-10-24T02:49:32.897Z,5.57
2022-10-24T02:52:00.163Z,5.30
2022-10-24T02:54:26.884Z,5.03
2022-10-24T02:56:58.167Z,5.47
2022-10-24T02:59:24.896Z,5.57
2022-10-24T03:01:51.747Z,5.30
2022-10-24T03:04:18.591Z,5.20
2022-10-24T03:06:45.257Z,5.43
2022-10-24T03:09:12.009Z,5.20
2022-10-24T03:11:53.642Z,5.88
2022-10-24T03:14:20.464Z,5.72
2022-10-24T03:16:47.143Z,6.40
2022-10-24T03:19:13.824Z,5.60
2022-10-24T03:21:40.861Z,5.25
2022-10-24T03:26:39.612Z,6.00
2022-10-24T03:29:06.342Z,5.68
2022-10-24T03:31:33.100Z,6.55
2022-10-24T03:33:59.903Z,6.00
2022-10-24T03:36:26.699Z,6.38
2022-10-24T03:38:53.435Z,6.13
2022-10-24T03:41:22.064Z,6.35
2022-10-24T03:43:48.837Z,6.78
2022-10-24T03:46:15.619Z,5.72
2022-10-24T03:48:42.451Z,6.30
2022-10-24T03:51:09.148Z,5.80
2022-10-24T03:53:36.309Z,6.38
2022-10-24T03:56:03.240Z,6.45
2022-10-24T03:58:30.071Z,5.82
2022-10-24T04:00:59.095Z,6.22
2022-10-24T04:03:27.084Z,6.28
2022-10-24T04:05:54.679Z,6.82
2022-10-24T04:08:21.446Z,6.85
2022-10-24T04:10:49.584Z,7.38
2022-10-24T04:13:16.389Z,6.93
2022-10-24T04:15:43.254Z,6.60
2022-10-24T04:18:10.197Z,6.65
2022-10-24T04:20:37.123Z,6.63
2022-10-24T04:23:04.612Z,6.93
2022-10-24T04:25:31.579Z,6.55
2022-10-24T04:27:58.340Z,6.88
2022-10-24T04:30:25.258Z,6.93
2022-10-24T04:32:52.103Z,6.65
2022-10-24T04:35:18.867Z,7.30
2022-10-24T04:37:45.540Z,6.75
2022-10-24T04:40:12.365Z,6.72
2022-10-24T04:42:39.136Z,6.68
2022-10-24T04:45:07.009Z,7.05
2022-10-24T04:47:33.813Z,6.55
2022-10-24T04:50:00.450Z,6.78
2022-10-24T04:52:27.178Z,6.50
2022-10-24T04:54:54.147Z,6.75
2022-10-24T04:57:20.789Z,6.50
2022-10-24T04:59:47.640Z,6.60
2022-10-24T05:02:14.535Z,6.72
2022-10-24T05:04:41.372Z,6.35
2022-10-24T05:07:08.036Z,7.20
2022-10-24T05:09:34.916Z,6.78
2022-10-24T05:12:02.250Z,6.93
2022-10-24T05:14:28.975Z,6.38
2022-10-24T05:16:55.673Z,7.80
2022-10-24T05:19:22.356Z,5.95
2022-10-24T05:21:49.009Z,6.97
2022-10-24T05:24:15.697Z,6.28
2022-10-24T05:26:42.321Z,6.50
2022-10-24T05:29:09.114Z,6.65
2022-10-24T05:31:35.849Z,6.55
2022-10-24T05:34:02.500Z,7.05
2022-10-24T05:36:29.258Z,5.90
2022-10-24T05:38:56.332Z,5.95
2022-10-24T05:41:23.040Z,5.90
2022-10-24T05:43:49.701Z,5.97
2022-10-24T05:46:16.388Z,6.03
2022-10-24T05:48:43.086Z,6.00
2022-10-24T05:51:09.889Z,6.18
2022-10-24T05:53:36.638Z,6.38
2022-10-24T05:56:03.527Z,5.88
2022-10-24T05:58:30.200Z,5.88
2022-10-24T06:00:56.938Z,6.03
2022-10-24T06:03:23.924Z,6.40
2022-10-24T06:05:51.129Z,5.97
2022-10-24T06:08:18.308Z,5.63
2022-10-24T06:10:50.271Z,5.68
2022-10-24T06:13:17.557Z,5.45
2022-10-24T06:15:44.995Z,5.75
2022-10-24T06:18:12.160Z,5.38
2022-10-24T06:20:39.159Z,5.20
2022-10-24T06:23:05.802Z,5.43
2022-10-24T06:25:32.656Z,5.10
2022-10-24T06:27:59.981Z,4.85
2022-10-24T06:30:26.720Z,5.18
2022-10-24T06:32:53.526Z,4.93
2022-10-24T06:35:20.447Z,4.65
2022-10-24T06:37:48.332Z,5.70
2022-10-24T06:40:16.691Z,4.82
2022-10-24T06:42:43.389Z,5.00
2022-10-24T06:45:10.585Z,5.22
2022-10-24T06:47:37.314Z,5.07
2022-10-24T06:50:05.506Z,4.80
2022-10-24T06:52:32.407Z,5.25
2022-10-24T06:54:59.175Z,5.60
2022-10-24T06:57:26.208Z,4.97
2022-10-24T06:59:53.619Z,5.03
2022-10-24T07:02:20.732Z,4.82
2022-10-24T07:04:47.691Z,4.38
2022-10-24T07:07:20.230Z,4.90
2022-10-24T07:09:55.763Z,5.05
2022-10-24T07:12:24.010Z,4.97
2022-10-24T07:14:51.124Z,4.75
2022-10-24T07:17:18.830Z,4.45
2022-10-24T07:19:46.102Z,4.13
2022-10-24T07:22:12.817Z,4.60
2022-10-24T07:24:39.600Z,5.20
2022-10-24T07:27:06.315Z,4.47
2022-10-24T07:29:32.979Z,4.65
2022-10-24T07:31:59.719Z,4.00
2022-10-24T07:34:26.376Z,4.18
2022-10-24T07:36:53.126Z,4.00
2022-10-24T07:39:19.783Z,4.05
2022-10-24T07:41:46.442Z,4.00
2022-10-24T07:44:13.130Z,3.58
2022-10-24T07:46:41.839Z,4.35
2022-10-24T07:49:09.111Z,4.00
2022-10-24T07:51:35.879Z,3.60
2022-10-24T07:54:02.795Z,3.72
2022-10-24T07:56:29.556Z,3.83
2022-10-24T07:58:56.622Z,3.58
2022-10-24T08:01:25.726Z,3.40
2022-10-24T08:03:52.538Z,3.05
2022-10-24T08:06:22.285Z,3.38
2022-10-24T08:08:49.572Z,3.65
2022-10-24T08:11:23.644Z,3.33
2022-10-24T08:13:51.853Z,3.45
2022-10-24T08:16:20.932Z,3.97
2022-10-24T08:18:48.564Z,3.55
2022-10-24T08:21:16.904Z,3.47
2022-10-24T08:23:46.242Z,2.70
2022-10-24T08:26:18.076Z,2.92
2022-10-24T08:28:46.333Z,2.80
2022-10-24T08:31:19.659Z,3.10
2022-10-24T08:33:47.300Z,3.63
2022-10-24T08:36:21.628Z,2.53
2022-10-24T08:38:48.708Z,2.83
2022-10-24T08:41:30.378Z,2.75
2022-10-24T08:44:00.364Z,2.55
2022-10-24T08:46:53.214Z,3.55
2022-10-24T08:49:30.835Z,3.13
2022-10-24T08:52:18.752Z,2.95
2022-10-24T08:54:46.723Z,2.80
2022-10-24T08:57:29.559Z,2.13
2022-10-24T09:00:01.333Z,2.75
2022-10-24T09:02:33.900Z,2.28
2022-10-24T09:05:07.234Z,1.70
2022-10-24T09:07:34.012Z,2.78
2022-10-24T09:10:13.796Z,2.60
2022-10-24T09:12:40.567Z,2.92
2022-10-24T09:15:24.631Z,2.65
2022-10-24T09:20:26.439Z,1.88
2022-10-24T09:22:55.424Z,3.05
2022-10-24T09:25:24.753Z,2.50
2022-10-24T09:27:52.156Z,2.95
2022-10-24T09:30:29.890Z,2.72
2022-10-24T09:33:04.938Z,2.53
2022-10-24T09:35:35.290Z,2.47
2022-10-24T09:38:20.792Z,2.65
2022-10-24T09:40:51.522Z,2.30
2022-10-24T09:43:23.388Z,2.92
2022-10-24T09:46:02.389Z,3.03
2022-10-24T09:48:52.830Z,1.70
2022-10-24T09:51:34.200Z,2.22
2022-10-24T09:54:28.511Z,2.97
2022-10-24T09:56:56.678Z,2.75
2022-10-24T09:59:44.224Z,1.83
2022-10-24T10:02:11.185Z,1.95
2022-10-24T10:04:39.080Z,1.92
2022-10-24T10:07:17.978Z,2.42
2022-10-24T10:09:56.513Z,1.80
2022-10-24T10:12:33.012Z,2.08
2022-10-24T10:15:02.252Z,2.92
2022-10-24T10:17:32.833Z,2.33
2022-10-24T10:19:59.888Z,2.40
2022-10-24T10:22:29.605Z,2.40
2022-10-24T10:24:56.687Z,2.85
2022-10-24T10:27:37.117Z,2.55
2022-10-24T10:30:16.044Z,2.83
2022-10-24T10:32:59.458Z,2.65
2022-10-24T10:35:41.302Z,1.85
2022-10-24T10:38:17.592Z,2.60
2022-10-24T10:40:54.049Z,2.65
2022-10-24T10:43:42.582Z,2.33
2022-10-24T10:46:37.395Z,3.30
2022-10-24T10:49:13.385Z,2.35
2022-10-24T10:51:47.689Z,2.83
2022-10-24T10:54:36.325Z,2.42
2022-10-24T10:57:21.621Z,3.55
2022-10-24T10:59:57.359Z,2.63
2022-10-24T11:02:33.411Z,1.80
2022-10-24T11:05:34.382Z,2.83
2022-10-24T11:08:14.806Z,2.78
2022-10-24T11:10:53.694Z,2.03
2022-10-24T11:13:49.851Z,2.60
2022-10-24T11:16:22.912Z,2.20
2022-10-24T11:18:52.766Z,2.55
2022-10-24T11:21:22.470Z,2.45
2022-10-24T11:24:21.978Z,2.70
2022-10-24T11:26:53.452Z,2.47
2022-10-24T11:29:37.026Z,2.28
2022-10-24T11:35:01.906Z,2.03
2022-10-24T11:37:35.941Z,1.90
2022-10-24T11:40:15.781Z,2.30
2022-10-24T11:43:10.645Z,2.20
2022-10-24T11:46:03.608Z,2.17
2022-10-24T11:48:53.098Z,2.05
2022-10-24T11:51:25.941Z,2.33
2022-10-24T11:53:58.518Z,2.53
2022-10-24T11:56:45.911Z,1.98
2022-10-24T11:59:18.900Z,1.60
2022-10-24T12:02:09.400Z,2.10
2022-10-24T12:04:54.743Z,1.63
2022-10-24T12:07:43.455Z,2.33
2022-10-24T12:10:45.178Z,1.23
2022-10-24T12:13:24.048Z,2.00
2022-10-24T12:16:21.853Z,1.98
2022-10-24T12:18:58.380Z,1.40
2022-10-24T12:21:28.702Z,2.17
2022-10-24T12:24:00.185Z,2.25
2022-10-24T12:26:34.179Z,1.90
2022-10-24T12:29:20.348Z,1.70
2022-10-24T12:31:47.178Z,3.83
2022-10-24T12:34:17.047Z,2.55
2022-10-24T12:37:12.745Z,2.55
2022-10-24T12:39:48.715Z,2.22
2022-10-24T12:42:24.663Z,1.63
2022-10-24T12:45:00.899Z,1.65
2022-10-24T12:50:27.463Z,1.95
2022-10-24T12:52:54.244Z,1.92
2022-10-24T12:55:39.613Z,1.60
2022-10-24T12:58:34.122Z,1.92
2022-10-24T13:01:31.430Z,1.70
2022-10-24T13:04:17.912Z,1.60
2022-10-24T13:07:08.784Z,1.70
2022-10-24T13:09:45.647Z,1.80
2022-10-24T13:12:33.482Z,1.83
2022-10-24T13:15:23.042Z,1.83
2022-10-24T13:17:59.982Z,0.98
2022-10-24T13:20:30.661Z,1.92
2022-10-24T13:23:03.160Z,1.70
2022-10-24T13:25:33.513Z,2.15
2022-10-24T13:28:30.316Z,1.60
2022-10-24T13:30:59.948Z,1.67
2022-10-24T13:33:41.528Z,1.58
2022-10-24T13:36:17.511Z,2.00
2022-10-24T13:38:49.383Z,1.60
2022-10-24T13:41:33.723Z,2.13
2022-10-24T13:44:09.561Z,1.77
2022-10-24T13:46:53.289Z,1.52
2022-10-24T13:49:39.794Z,1.60
2022-10-24T13:52:18.329Z,1.75
2022-10-24T13:54:48.420Z,1.75
2022-10-24T13:57:23.843Z,1.95
2022-10-24T13:59:59.454Z,1.25
2022-10-24T14:02:32.223Z,2.05
2022-10-24T14:05:01.449Z,1.52
2022-10-24T14:07:31.430Z,1.85
2022-10-24T14:10:07.941Z,1.30
2022-10-24T14:12:36.435Z,1.73
2022-10-24T14:15:04.155Z,1.70
2022-10-24T14:17:34.534Z,1.70
2022-10-24T14:20:10.459Z,1.55
2022-10-24T14:22:40.923Z,1.60
2022-10-24T14:25:37.739Z,1.83
2022-10-24T14:28:20.485Z,1.60
2022-10-24T14:30:59.825Z,1.80
2022-10-24T14:33:29.121Z,1.75
2022-10-24T14:35:58.639Z,1.70
2022-10-24T14:38:27.518Z,1.20
2022-10-24T14:41:07.943Z,1.92
2022-10-24T14:43:39.962Z,2.00
2022-10-24T14:48:37.144Z,1.00
2022-10-24T14:51:09.263Z,1.60
2022-10-24T14:53:38.148Z,1.42
2022-10-24T14:56:14.108Z,1.50
2022-10-24T14:58:41.299Z,1.50
2022-10-24T15:01:18.363Z,1.27
2022-10-24T15:04:01.131Z,1.23
2022-10-24T15:06:28.034Z,1.77
2022-10-24T15:09:05.711Z,1.52
2022-10-24T15:11:40.354Z,1.38
2022-10-24T15:14:37.055Z,1.20
2022-10-24T15:17:18.804Z,1.73
2022-10-24T15:19:47.151Z,1.33
2022-10-24T15:22:31.471Z,2.33
2022-10-24T15:25:00.915Z,1.55
2022-10-24T15:27:31.408Z,1.80
2022-10-24T15:29:58.101Z,1.70
2022-10-24T15:32:26.446Z,2.17
2022-10-24T15:34:56.132Z,2.15
2022-10-24T15:37:25.007Z,1.83
2022-10-24T15:39:53.271Z,1.70
2022-10-24T15:42:22.542Z,1.70
2022-10-24T15:44:49.783Z,1.80
2022-10-24T15:47:16.562Z,1.65
2022-10-24T15:49:43.328Z,1.52
2022-10-24T15:52:15.707Z,1.48
2022-10-24T15:54:42.775Z,2.53
2022-10-24T15:57:13.869Z,1.48
2022-10-24T15:59:40.637Z,1.70
2022-10-24T16:02:17.846Z,1.50
2022-10-24T16:04:44.772Z,1.88
2022-10-24T16:07:11.723Z,1.27
2022-10-24T16:09:38.716Z,1.60
2022-10-24T16:12:05.833Z,1.42
2022-10-24T16:14:33.016Z,1.17
2022-10-24T16:17:00.050Z,1.05
2022-10-24T16:19:27.283Z,1.00
2022-10-24T16:21:58.882Z,1.13
2022-10-24T16:24:26.588Z,1.00
2022-10-24T16:26:53.770Z,1.60
2022-10-24T16:29:20.523Z,1.00
2022-10-24T16:31:49.084Z,1.20
2022-10-24T16:34:15.768Z,0.98
2022-10-24T16:36:42.496Z,1.05
2022-10-24T16:39:09.474Z,1.60
2022-10-24T16:41:36.229Z,1.00
2022-10-24T16:44:03.784Z,1.23
2022-10-24T16:46:30.670Z,1.42
2022-10-24T16:48:57.423Z,1.50
2022-10-24T16:51:31.789Z,1.08
2022-10-24T16:54:00.059Z,1.25
2022-10-24T16:56:27.040Z,1.45
2022-10-24T16:58:54.008Z,1.55
2022-10-24T17:01:23.016Z,1.15
2022-10-24T17:03:49.908Z,2.15
2022-10-24T17:06:16.557Z,1.52
2022-10-24T17:08:43.600Z,1.67
2022-10-24T17:11:32.343Z,0.82
2022-10-24T17:13:58.147Z,1.60
2022-10-24T17:16:24.956Z,1.17
2022-10-24T17:19:05.613Z,1.08
2022-10-24T17:21:41.553Z,1.17
2022-10-24T17:24:12.082Z,1.23
2022-10-24T17:26:39.842Z,0.95
2022-10-24T17:29:08.417Z,1.77
2022-10-24T17:31:36.027Z,0.80
2022-10-24T17:34:03.266Z,0.90
2022-10-24T17:36:34.732Z,0.77
2022-10-24T17:39:13.363Z,0.70
2022-10-24T17:41:41.320Z,1.27
2022-10-24T17:44:16.629Z,0.75
2022-10-24T17:46:44.526Z,1.13
2022-10-24T17:49:16.511Z,0.90
2022-10-24T17:51:47.171Z,1.02
2022-10-24T17:54:15.093Z,0.88
2022-10-24T17:56:42.743Z,1.17
2022-10-24T17:59:09.540Z,1.55
2022-10-24T18:01:36.683Z,1.33
2022-10-24T18:04:04.341Z,2.25
2022-10-24T18:06:31.509Z,1.33
2022-10-24T18:08:58.290Z,1.25
2022-10-24T18:11:25.496Z,1.48
2022-10-24T18:13:52.313Z,1.30
2022-10-24T18:16:19.931Z,1.70
2022-10-24T18:18:47.282Z,1.20
2022-10-24T18:21:22.857Z,1.33
2022-10-24T18:23:49.663Z,2.50
2022-10-24T18:26:18.929Z,1.98
2022-10-24T18:28:50.071Z,1.40
2022-10-24T18:31:25.664Z,1.80
2022-10-24T18:33:52.890Z,1.50
2022-10-24T18:36:21.936Z,1.25
2022-10-24T18:38:48.934Z,1.20
2022-10-24T18:41:37.177Z,1.60
2022-10-24T18:44:24.271Z,1.80
2022-10-24T18:46:53.031Z,1.10
2022-10-24T18:49:20.165Z,1.20
2022-10-24T18:51:51.985Z,0.88
2022-10-24T18:54:20.887Z,1.42
2022-10-24T18:56:48.199Z,1.15
2022-10-24T18:59:20.550Z,1.30
2022-10-24T19:02:08.845Z,1.10
2022-10-24T19:04:40.086Z,1.95
2022-10-24T19:07:08.983Z,1.58
2022-10-24T19:09:36.307Z,1.10
2022-10-24T19:12:03.430Z,1.52
2022-10-24T19:14:30.442Z,1.20
2022-10-24T19:16:59.167Z,0.93
2022-10-24T19:19:29.705Z,1.70
2022-10-24T19:21:56.624Z,1.92
2022-10-24T19:24:23.314Z,1.20
2022-10-24T19:26:50.870Z,0.98
2022-10-24T19:29:17.824Z,1.05
2022-10-24T19:31:46.043Z,0.98
2022-10-24T19:34:12.846Z,1.10
2022-10-24T19:36:39.595Z,1.05
2022-10-24T19:39:06.540Z,1.10
2022-10-24T19:41:33.694Z,1.40
2022-10-24T19:44:00.394Z,0.80
2022-10-24T19:46:27.289Z,1.15
2022-10-24T19:48:55.129Z,0.98
2022-10-24T19:51:23.073Z,1.05
2022-10-24T19:53:51.513Z,1.02
2022-10-24T19:56:25.212Z,1.27
2022-10-24T19:58:53.135Z,1.63
2022-10-24T20:01:23.119Z,1.20
2022-10-24T20:03:50.594Z,1.60
2022-10-24T20:06:18.069Z,1.42
2022-10-24T20:08:49.147Z,1.73
2022-10-24T20:11:16.748Z,1.67
2022-10-24T20:13:44.239Z,1.20
2022-10-24T20:16:11.713Z,1.30
2022-10-24T20:21:15.063Z,1.92
2022-10-24T20:23:42.041Z,0.95
2022-10-24T20:26:12.870Z,0.82
2022-10-24T20:28:45.826Z,1.10
2022-10-24T20:31:39.508Z,0.95
2022-10-24T20:34:11.093Z,1.00
2022-10-24T20:36:39.903Z,1.20
2022-10-24T20:39:07.732Z,0.82
2022-10-24T20:41:37.700Z,1.05
2022-10-24T20:44:06.739Z,1.10
2022-10-24T20:46:33.664Z,1.50
2022-10-24T20:49:01.339Z,1.00
2022-10-24T20:51:28.180Z,0.88
2022-10-24T20:53:54.885Z,0.90
2022-10-24T20:56:25.794Z,1.10
2022-10-24T20:58:54.043Z,1.30
2022-10-24T21:01:26.513Z,1.00
2022-10-24T21:03:54.512Z,1.40
2022-10-24T21:06:22.549Z,1.10
2022-10-24T21:08:51.160Z,1.42
2022-10-24T21:11:25.007Z,0.98
2022-10-24T21:13:56.710Z,1.10
2022-10-24T21:16:24.146Z,1.10
2022-10-24T21:18:51.324Z,1.00
2022-10-24T21:21:19.132Z,0.98
2022-10-24T21:23:50.736Z,1.15
2022-10-24T21:26:18.063Z,1.05
2022-10-24T21:28:44.862Z,1.23
2022-10-24T21:31:18.230Z,0.88
2022-10-24T21:33:45.155Z,1.15
2022-10-24T21:36:21.270Z,1.42
2022-10-24T21:38:50.257Z,1.35
2022-10-24T21:41:18.232Z,1.40
2022-10-24T21:43:45.676Z,2.00
2022-10-24T21:46:18.608Z,1.63
2022-10-24T21:48:46.385Z,1.23
2022-10-24T21:51:17.443Z,1.10
2022-10-24T21:53:50.108Z,1.23
2022-10-24T21:56:21.329Z,1.10
2022-10-24T21:58:56.651Z,1.50
2022-10-24T22:01:25.903Z,1.63
2022-10-24T22:03:54.379Z,1.40
2022-10-24T22:06:21.703Z,1.35
2022-10-24T22:08:50.064Z,1.88
2022-10-24T22:11:19.196Z,1.30
2022-10-24T22:13:46.385Z,1.40
2022-10-24T22:16:14.763Z,1.70
2022-10-24T22:18:42.095Z,1.83
2022-10-24T22:21:15.851Z,1.60
2022-10-24T22:23:42.566Z,1.80
2022-10-24T22:26:09.236Z,1.80
2022-10-24T22:28:35.954Z,1.80
2022-10-24T22:31:02.985Z,1.90
2022-10-24T22:33:38.351Z,2.15
2022-10-24T22:36:26.955Z,2.00
2022-10-24T22:38:54.401Z,1.85
2022-10-24T22:41:22.515Z,2.15
2022-10-24T22:43:49.692Z,2.00
2022-10-24T22:46:38.240Z,1.92
2022-10-24T22:49:32.173Z,1.77
2022-10-24T22:51:59.166Z,1.83
2022-10-24T22:54:32.848Z,2.00
2022-10-24T22:56:59.901Z,2.55
2022-10-24T22:59:26.983Z,3.15
2022-10-24T23:02:01.922Z,1.83
2022-10-24T23:04:34.201Z,2.40
2022-10-24T23:07:24.953Z,2.53
2022-10-24T23:09:54.038Z,2.35
2022-10-24T23:12:21.973Z,2.10
2022-10-24T23:14:49.999Z,2.67
2022-10-24T23:17:30.435Z,2.63
2022-10-24T23:19:57.732Z,2.33
2022-10-24T23:22:26.251Z,2.60
2022-10-24T23:24:58.798Z,2.60
2022-10-24T23:27:35.675Z,2.63
2022-10-24T23:30:04.596Z,2.88
2022-10-24T23:32:33.868Z,2.80
2022-10-24T23:35:00.961Z,2.80
2022-10-24T23:37:36.734Z,3.13
2022-10-24T23:40:27.149Z,3.38
2022-10-24T23:42:54.265Z,2.78
2022-10-24T23:45:23.627Z,2.60
2022-10-24T23:47:56.181Z,2.83
2022-10-24T23:50:32.430Z,2.97
2022-10-24T23:53:20.838Z,2.70
2022-10-24T23:55:48.279Z,2.95
2022-10-24T23:58:15.297Z,3.00
